sensor_id;sensor_type;location;lat;lon;timestamp;P1;durP1;ratioP1;P2;durP2;ratioP2
75016;SDS011;63577;39.766;2.720;2023-06-14T00:02:02;11.20;;;3.20;;
75016;SDS011;63577;39.766;2.720;2023-06-14T00:04:28;9.10;;;3.00;;
75016;SDS011;63577;39.766;2.720;2023-06-14T00:06:53;7.30;;;3.40;;
75016;SDS011;63577;39.766;2.720;2023-06-14T00:09:22;8.70;;;3.00;;
75016;SDS011;63577;39.766;2.720;2023-06-14T00:11:47;7.70;;;3.50;;
75016;SDS011;63577;39.766;2.720;2023-06-14T00:14:13;8.80;;;2.90;;
75016;SDS011;63577;39.766;2.720;2023-06-14T00:16:39;9.60;;;4.10;;
75016;SDS011;63577;39.766;2.720;2023-06-14T00:19:08;7.30;;;3.10;;
75016;SDS011;63577;39.766;2.720;2023-06-14T00:21:33;7.20;;;3.10;;
75016;SDS011;63577;39.766;2.720;2023-06-14T00:24:00;7.80;;;3.20;;
75016;SDS011;63577;39.766;2.720;2023-06-14T00:26:25;9.40;;;3.30;;
75016;SDS011;63577;39.766;2.720;2023-06-14T00:28:51;7.20;;;3.30;;
75016;SDS011;63577;39.766;2.720;2023-06-14T00:31:17;8.10;;;2.80;;
75016;SDS011;63577;39.766;2.720;2023-06-14T00:33:42;7.50;;;3.70;;
75016;SDS011;63577;39.766;2.720;2023-06-14T00:36:07;6.40;;;3.00;;
75016;SDS011;63577;39.766;2.720;2023-06-14T00:38:33;8.40;;;3.40;;
75016;SDS011;63577;39.766;2.720;2023-06-14T00:40:58;7.60;;;3.10;;
75016;SDS011;63577;39.766;2.720;2023-06-14T00:43:23;8.10;;;3.30;;
75016;SDS011;63577;39.766;2.720;2023-06-14T00:45:49;6.70;;;3.50;;
75016;SDS011;63577;39.766;2.720;2023-06-14T00:48:16;8.50;;;3.20;;
75016;SDS011;63577;39.766;2.720;2023-06-14T00:50:42;7.00;;;3.40;;
75016;SDS011;63577;39.766;2.720;2023-06-14T00:53:11;6.80;;;3.20;;
75016;SDS011;63577;39.766;2.720;2023-06-14T00:55:36;7.40;;;3.10;;
75016;SDS011;63577;39.766;2.720;2023-06-14T00:58:01;7.40;;;2.90;;
75016;SDS011;63577;39.766;2.720;2023-06-14T01:00:27;7.50;;;3.00;;
75016;SDS011;63577;39.766;2.720;2023-06-14T01:02:53;5.30;;;2.70;;
75016;SDS011;63577;39.766;2.720;2023-06-14T01:05:20;7.50;;;2.60;;
75016;SDS011;63577;39.766;2.720;2023-06-14T01:07:56;4.30;;;2.20;;
75016;SDS011;63577;39.766;2.720;2023-06-14T01:13:10;5.50;;;2.20;;
75016;SDS011;63577;39.766;2.720;2023-06-14T01:15:37;5.40;;;2.10;;
75016;SDS011;63577;39.766;2.720;2023-06-14T01:18:05;4.40;;;1.80;;
75016;SDS011;63577;39.766;2.720;2023-06-14T01:20:31;7.00;;;2.10;;
75016;SDS011;63577;39.766;2.720;2023-06-14T01:22:57;4.90;;;2.00;;
75016;SDS011;63577;39.766;2.720;2023-06-14T01:25:23;7.30;;;2.40;;
75016;SDS011;63577;39.766;2.720;2023-06-14T01:27:51;4.70;;;2.20;;
75016;SDS011;63577;39.766;2.720;2023-06-14T01:30:17;5.20;;;2.50;;
75016;SDS011;63577;39.766;2.720;2023-06-14T01:32:43;5.60;;;2.40;;
75016;SDS011;63577;39.766;2.720;2023-06-14T01:35:09;5.10;;;2.30;;
75016;SDS011;63577;39.766;2.720;2023-06-14T01:37:35;5.60;;;2.90;;
75016;SDS011;63577;39.766;2.720;2023-06-14T01:40:01;4.90;;;2.10;;
75016;SDS011;63577;39.766;2.720;2023-06-14T01:42:27;6.00;;;2.30;;
75016;SDS011;63577;39.766;2.720;2023-06-14T01:44:52;5.80;;;2.20;;
75016;SDS011;63577;39.766;2.720;2023-06-14T01:47:19;5.60;;;2.10;;
75016;SDS011;63577;39.766;2.720;2023-06-14T01:49:46;5.20;;;2.00;;
75016;SDS011;63577;39.766;2.720;2023-06-14T01:52:11;5.00;;;2.30;;
75016;SDS011;63577;39.766;2.720;2023-06-14T01:54:37;4.60;;;2.20;;
75016;SDS011;63577;39.766;2.720;2023-06-14T01:57:07;5.00;;;2.30;;
75016;SDS011;63577;39.766;2.720;2023-06-14T01:59:33;5.20;;;2.40;;
75016;SDS011;63577;39.766;2.720;2023-06-14T02:02:00;5.00;;;2.20;;
75016;SDS011;63577;39.766;2.720;2023-06-14T02:04:25;4.80;;;2.30;;
75016;SDS011;63577;39.766;2.720;2023-06-14T02:06:50;5.80;;;2.10;;
75016;SDS011;63577;39.766;2.720;2023-06-14T02:09:16;5.40;;;2.20;;
75016;SDS011;63577;39.766;2.720;2023-06-14T02:11:42;4.30;;;2.50;;
75016;SDS011;63577;39.766;2.720;2023-06-14T02:14:08;6.40;;;2.10;;
75016;SDS011;63577;39.766;2.720;2023-06-14T02:16:36;5.30;;;2.30;;
75016;SDS011;63577;39.766;2.720;2023-06-14T02:19:01;6.60;;;2.90;;
75016;SDS011;63577;39.766;2.720;2023-06-14T02:21:26;4.60;;;2.40;;
75016;SDS011;63577;39.766;2.720;2023-06-14T02:23:52;4.40;;;2.40;;
75016;SDS011;63577;39.766;2.720;2023-06-14T02:26:17;4.40;;;2.20;;
75016;SDS011;63577;39.766;2.720;2023-06-14T02:28:42;6.40;;;2.80;;
75016;SDS011;63577;39.766;2.720;2023-06-14T02:31:08;4.70;;;2.30;;
75016;SDS011;63577;39.766;2.720;2023-06-14T02:33:33;5.60;;;2.40;;
75016;SDS011;63577;39.766;2.720;2023-06-14T02:35:59;5.20;;;2.40;;
75016;SDS011;63577;39.766;2.720;2023-06-14T02:38:25;5.10;;;2.60;;
75016;SDS011;63577;39.766;2.720;2023-06-14T02:40:50;6.20;;;2.70;;
75016;SDS011;63577;39.766;2.720;2023-06-14T02:43:15;5.00;;;2.50;;
75016;SDS011;63577;39.766;2.720;2023-06-14T02:45:42;4.80;;;2.30;;
75016;SDS011;63577;39.766;2.720;2023-06-14T02:48:08;4.40;;;2.30;;
75016;SDS011;63577;39.766;2.720;2023-06-14T02:50:33;6.00;;;2.40;;
75016;SDS011;63577;39.766;2.720;2023-06-14T02:52:58;6.40;;;2.40;;
75016;SDS011;63577;39.766;2.720;2023-06-14T02:55:24;5.00;;;2.20;;
75016;SDS011;63577;39.766;2.720;2023-06-14T02:57:49;4.90;;;2.30;;
75016;SDS011;63577;39.766;2.720;2023-06-14T03:00:15;6.90;;;2.90;;
75016;SDS011;63577;39.766;2.720;2023-06-14T03:02:40;6.00;;;2.50;;
75016;SDS011;63577;39.766;2.720;2023-06-14T03:05:08;7.70;;;2.70;;
75016;SDS011;63577;39.766;2.720;2023-06-14T03:07:33;5.40;;;2.70;;
75016;SDS011;63577;39.766;2.720;2023-06-14T03:09:59;5.00;;;2.10;;
75016;SDS011;63577;39.766;2.720;2023-06-14T03:12:24;5.60;;;1.80;;
75016;SDS011;63577;39.766;2.720;2023-06-14T03:14:51;4.40;;;2.00;;
75016;SDS011;63577;39.766;2.720;2023-06-14T03:17:17;5.00;;;2.00;;
75016;SDS011;63577;39.766;2.720;2023-06-14T03:19:42;4.80;;;2.30;;
75016;SDS011;63577;39.766;2.720;2023-06-14T03:22:08;5.70;;;2.20;;
75016;SDS011;63577;39.766;2.720;2023-06-14T03:24:33;5.70;;;2.20;;
75016;SDS011;63577;39.766;2.720;2023-06-14T03:27:01;4.60;;;2.50;;
75016;SDS011;63577;39.766;2.720;2023-06-14T03:29:27;5.10;;;2.30;;
75016;SDS011;63577;39.766;2.720;2023-06-14T03:31:56;5.40;;;2.40;;
75016;SDS011;63577;39.766;2.720;2023-06-14T03:36:47;5.30;;;2.30;;
75016;SDS011;63577;39.766;2.720;2023-06-14T03:39:12;5.90;;;2.50;;
75016;SDS011;63577;39.766;2.720;2023-06-14T03:41:38;5.80;;;2.40;;
75016;SDS011;63577;39.766;2.720;2023-06-14T03:44:03;6.00;;;2.50;;
75016;SDS011;63577;39.766;2.720;2023-06-14T03:46:29;5.90;;;2.30;;
75016;SDS011;63577;39.766;2.720;2023-06-14T03:48:54;4.70;;;2.40;;
75016;SDS011;63577;39.766;2.720;2023-06-14T03:51:19;5.50;;;2.40;;
75016;SDS011;63577;39.766;2.720;2023-06-14T03:53:45;6.00;;;2.40;;
75016;SDS011;63577;39.766;2.720;2023-06-14T03:56:11;5.30;;;2.60;;
75016;SDS011;63577;39.766;2.720;2023-06-14T03:58:36;4.50;;;2.40;;
75016;SDS011;63577;39.766;2.720;2023-06-14T04:01:02;7.30;;;2.60;;
75016;SDS011;63577;39.766;2.720;2023-06-14T04:03:27;4.50;;;2.20;;
75016;SDS011;63577;39.766;2.720;2023-06-14T04:05:54;4.30;;;2.30;;
75016;SDS011;63577;39.766;2.720;2023-06-14T04:08:21;5.30;;;2.20;;
75016;SDS011;63577;39.766;2.720;2023-06-14T04:10:47;4.90;;;2.30;;
75016;SDS011;63577;39.766;2.720;2023-06-14T04:13:12;4.60;;;2.60;;
75016;SDS011;63577;39.766;2.720;2023-06-14T04:15:38;5.20;;;2.60;;
75016;SDS011;63577;39.766;2.720;2023-06-14T04:18:07;4.50;;;2.20;;
75016;SDS011;63577;39.766;2.720;2023-06-14T04:20:33;5.40;;;2.60;;
75016;SDS011;63577;39.766;2.720;2023-06-14T04:23:10;4.70;;;2.10;;
75016;SDS011;63577;39.766;2.720;2023-06-14T04:25:37;5.40;;;2.50;;
75016;SDS011;63577;39.766;2.720;2023-06-14T04:28:02;6.00;;;2.70;;
75016;SDS011;63577;39.766;2.720;2023-06-14T04:30:28;6.60;;;2.60;;
75016;SDS011;63577;39.766;2.720;2023-06-14T04:32:56;5.80;;;2.50;;
75016;SDS011;63577;39.766;2.720;2023-06-14T04:35:22;5.70;;;2.50;;
75016;SDS011;63577;39.766;2.720;2023-06-14T04:37:52;5.00;;;2.20;;
75016;SDS011;63577;39.766;2.720;2023-06-14T04:40:18;6.80;;;2.40;;
75016;SDS011;63577;39.766;2.720;2023-06-14T04:42:44;4.90;;;2.60;;
75016;SDS011;63577;39.766;2.720;2023-06-14T04:45:11;6.20;;;2.40;;
75016;SDS011;63577;39.766;2.720;2023-06-14T04:47:38;6.80;;;2.60;;
75016;SDS011;63577;39.766;2.720;2023-06-14T04:50:03;7.50;;;2.80;;
75016;SDS011;63577;39.766;2.720;2023-06-14T04:52:29;4.50;;;2.40;;
75016;SDS011;63577;39.766;2.720;2023-06-14T04:54:55;5.20;;;2.60;;
75016;SDS011;63577;39.766;2.720;2023-06-14T04:57:21;5.40;;;3.00;;
75016;SDS011;63577;39.766;2.720;2023-06-14T04:59:48;5.90;;;2.60;;
75016;SDS011;63577;39.766;2.720;2023-06-14T05:02:13;7.00;;;2.90;;
75016;SDS011;63577;39.766;2.720;2023-06-14T05:04:39;4.80;;;2.60;;
75016;SDS011;63577;39.766;2.720;2023-06-14T05:07:08;6.70;;;2.70;;
75016;SDS011;63577;39.766;2.720;2023-06-14T05:09:34;6.30;;;2.30;;
75016;SDS011;63577;39.766;2.720;2023-06-14T05:12:00;5.70;;;2.20;;
75016;SDS011;63577;39.766;2.720;2023-06-14T05:14:25;4.70;;;2.60;;
75016;SDS011;63577;39.766;2.720;2023-06-14T05:16:51;6.40;;;2.50;;
75016;SDS011;63577;39.766;2.720;2023-06-14T05:19:17;6.20;;;3.00;;
75016;SDS011;63577;39.766;2.720;2023-06-14T05:21:43;8.70;;;3.20;;
75016;SDS011;63577;39.766;2.720;2023-06-14T05:24:09;5.70;;;2.70;;
75016;SDS011;63577;39.766;2.720;2023-06-14T05:26:34;5.30;;;2.40;;
75016;SDS011;63577;39.766;2.720;2023-06-14T05:29:00;6.00;;;2.70;;
75016;SDS011;63577;39.766;2.720;2023-06-14T05:31:26;4.80;;;2.40;;
75016;SDS011;63577;39.766;2.720;2023-06-14T05:33:53;5.70;;;2.60;;
75016;SDS011;63577;39.766;2.720;2023-06-14T05:36:19;4.30;;;2.10;;
75016;SDS011;63577;39.766;2.720;2023-06-14T05:38:45;5.60;;;2.60;;
75016;SDS011;63577;39.766;2.720;2023-06-14T05:41:10;5.30;;;2.40;;
75016;SDS011;63577;39.766;2.720;2023-06-14T05:43:36;5.60;;;2.10;;
75016;SDS011;63577;39.766;2.720;2023-06-14T05:46:01;4.90;;;2.00;;
75016;SDS011;63577;39.766;2.720;2023-06-14T05:48:26;5.60;;;2.10;;
75016;SDS011;63577;39.766;2.720;2023-06-14T05:50:52;5.40;;;2.60;;
75016;SDS011;63577;39.766;2.720;2023-06-14T05:53:17;5.70;;;2.70;;
75016;SDS011;63577;39.766;2.720;2023-06-14T05:55:42;5.50;;;2.40;;
75016;SDS011;63577;39.766;2.720;2023-06-14T05:58:08;5.90;;;2.50;;
75016;SDS011;63577;39.766;2.720;2023-06-14T06:00:33;5.60;;;2.90;;
75016;SDS011;63577;39.766;2.720;2023-06-14T06:02:58;5.00;;;2.90;;
75016;SDS011;63577;39.766;2.720;2023-06-14T06:05:24;6.70;;;3.10;;
75016;SDS011;63577;39.766;2.720;2023-06-14T06:07:50;5.60;;;2.90;;
75016;SDS011;63577;39.766;2.720;2023-06-14T06:10:15;6.20;;;3.10;;
75016;SDS011;63577;39.766;2.720;2023-06-14T06:12:41;5.50;;;3.00;;
75016;SDS011;63577;39.766;2.720;2023-06-14T06:15:06;6.20;;;3.20;;
75016;SDS011;63577;39.766;2.720;2023-06-14T06:17:33;5.30;;;3.30;;
75016;SDS011;63577;39.766;2.720;2023-06-14T06:19:58;7.50;;;4.00;;
75016;SDS011;63577;39.766;2.720;2023-06-14T06:22:24;8.10;;;4.60;;
75016;SDS011;63577;39.766;2.720;2023-06-14T06:24:49;11.60;;;6.60;;
75016;SDS011;63577;39.766;2.720;2023-06-14T06:27:15;10.10;;;5.50;;
75016;SDS011;63577;39.766;2.720;2023-06-14T06:29:41;9.70;;;5.80;;
75016;SDS011;63577;39.766;2.720;2023-06-14T06:32:08;10.00;;;5.90;;
75016;SDS011;63577;39.766;2.720;2023-06-14T06:34:34;9.70;;;5.80;;
75016;SDS011;63577;39.766;2.720;2023-06-14T06:37:02;8.00;;;4.40;;
75016;SDS011;63577;39.766;2.720;2023-06-14T06:39:28;7.80;;;4.40;;
75016;SDS011;63577;39.766;2.720;2023-06-14T06:41:53;7.70;;;3.90;;
75016;SDS011;63577;39.766;2.720;2023-06-14T06:44:18;6.20;;;3.80;;
75016;SDS011;63577;39.766;2.720;2023-06-14T06:46:44;6.20;;;3.00;;
75016;SDS011;63577;39.766;2.720;2023-06-14T06:49:09;4.70;;;2.60;;
75016;SDS011;63577;39.766;2.720;2023-06-14T06:51:37;5.90;;;2.70;;
75016;SDS011;63577;39.766;2.720;2023-06-14T06:54:02;4.90;;;2.40;;
75016;SDS011;63577;39.766;2.720;2023-06-14T06:56:28;4.40;;;1.90;;
75016;SDS011;63577;39.766;2.720;2023-06-14T06:58:53;5.30;;;2.00;;
75016;SDS011;63577;39.766;2.720;2023-06-14T07:01:18;4.10;;;2.10;;
75016;SDS011;63577;39.766;2.720;2023-06-14T07:03:45;4.70;;;2.20;;
75016;SDS011;63577;39.766;2.720;2023-06-14T07:06:10;6.20;;;2.30;;
75016;SDS011;63577;39.766;2.720;2023-06-14T07:08:36;3.80;;;1.70;;
75016;SDS011;63577;39.766;2.720;2023-06-14T07:11:03;4.20;;;1.90;;
75016;SDS011;63577;39.766;2.720;2023-06-14T07:13:29;5.90;;;2.10;;
75016;SDS011;63577;39.766;2.720;2023-06-14T07:15:56;3.60;;;1.90;;
75016;SDS011;63577;39.766;2.720;2023-06-14T07:18:22;4.40;;;2.20;;
75016;SDS011;63577;39.766;2.720;2023-06-14T07:20:47;4.30;;;2.20;;
75016;SDS011;63577;39.766;2.720;2023-06-14T07:23:13;4.10;;;1.90;;
75016;SDS011;63577;39.766;2.720;2023-06-14T07:25:38;4.30;;;2.20;;
75016;SDS011;63577;39.766;2.720;2023-06-14T07:28:03;4.40;;;1.90;;
75016;SDS011;63577;39.766;2.720;2023-06-14T07:30:29;5.00;;;1.80;;
75016;SDS011;63577;39.766;2.720;2023-06-14T07:32:55;4.80;;;1.90;;
75016;SDS011;63577;39.766;2.720;2023-06-14T07:35:21;4.50;;;2.10;;
75016;SDS011;63577;39.766;2.720;2023-06-14T07:37:46;4.20;;;1.90;;
75016;SDS011;63577;39.766;2.720;2023-06-14T07:40:12;5.20;;;2.30;;
75016;SDS011;63577;39.766;2.720;2023-06-14T07:42:38;4.70;;;1.90;;
75016;SDS011;63577;39.766;2.720;2023-06-14T07:45:04;4.00;;;1.50;;
75016;SDS011;63577;39.766;2.720;2023-06-14T07:47:29;6.60;;;3.50;;
75016;SDS011;63577;39.766;2.720;2023-06-14T07:49:55;5.80;;;3.00;;
75016;SDS011;63577;39.766;2.720;2023-06-14T07:52:20;5.30;;;1.80;;
75016;SDS011;63577;39.766;2.720;2023-06-14T07:54:45;5.10;;;2.50;;
75016;SDS011;63577;39.766;2.720;2023-06-14T07:57:11;4.90;;;2.20;;
75016;SDS011;63577;39.766;2.720;2023-06-14T07:59:36;5.60;;;2.50;;
75016;SDS011;63577;39.766;2.720;2023-06-14T08:02:01;7.00;;;2.20;;
75016;SDS011;63577;39.766;2.720;2023-06-14T08:04:27;4.10;;;2.00;;
75016;SDS011;63577;39.766;2.720;2023-06-14T08:06:52;4.20;;;2.20;;
75016;SDS011;63577;39.766;2.720;2023-06-14T08:09:18;4.10;;;1.70;;
75016;SDS011;63577;39.766;2.720;2023-06-14T08:11:44;4.30;;;2.10;;
75016;SDS011;63577;39.766;2.720;2023-06-14T08:14:09;5.40;;;1.90;;
75016;SDS011;63577;39.766;2.720;2023-06-14T08:16:35;5.10;;;1.70;;
75016;SDS011;63577;39.766;2.720;2023-06-14T08:19:00;4.30;;;2.00;;
75016;SDS011;63577;39.766;2.720;2023-06-14T08:21:26;5.30;;;1.80;;
75016;SDS011;63577;39.766;2.720;2023-06-14T08:23:54;4.30;;;1.90;;
75016;SDS011;63577;39.766;2.720;2023-06-14T08:26:20;4.80;;;2.10;;
75016;SDS011;63577;39.766;2.720;2023-06-14T08:28:46;4.00;;;2.10;;
75016;SDS011;63577;39.766;2.720;2023-06-14T08:31:11;4.70;;;1.90;;
75016;SDS011;63577;39.766;2.720;2023-06-14T08:33:37;3.70;;;1.90;;
75016;SDS011;63577;39.766;2.720;2023-06-14T08:36:04;4.90;;;2.20;;
75016;SDS011;63577;39.766;2.720;2023-06-14T08:38:29;4.70;;;2.40;;
75016;SDS011;63577;39.766;2.720;2023-06-14T08:40:56;5.40;;;2.00;;
75016;SDS011;63577;39.766;2.720;2023-06-14T08:43:22;5.50;;;1.90;;
75016;SDS011;63577;39.766;2.720;2023-06-14T08:45:48;4.60;;;2.30;;
75016;SDS011;63577;39.766;2.720;2023-06-14T08:48:14;5.90;;;2.60;;
75016;SDS011;63577;39.766;2.720;2023-06-14T08:50:42;8.20;;;3.00;;
75016;SDS011;63577;39.766;2.720;2023-06-14T08:53:08;6.00;;;2.60;;
75016;SDS011;63577;39.766;2.720;2023-06-14T08:55:36;6.50;;;2.70;;
75016;SDS011;63577;39.766;2.720;2023-06-14T08:58:04;4.70;;;2.20;;
75016;SDS011;63577;39.766;2.720;2023-06-14T09:00:30;4.40;;;2.70;;
75016;SDS011;63577;39.766;2.720;2023-06-14T09:02:57;5.80;;;2.20;;
75016;SDS011;63577;39.766;2.720;2023-06-14T09:05:23;8.20;;;2.60;;
75016;SDS011;63577;39.766;2.720;2023-06-14T09:07:49;7.80;;;2.30;;
75016;SDS011;63577;39.766;2.720;2023-06-14T09:10:15;7.10;;;2.80;;
75016;SDS011;63577;39.766;2.720;2023-06-14T09:12:41;6.40;;;2.80;;
75016;SDS011;63577;39.766;2.720;2023-06-14T09:15:06;4.80;;;2.40;;
75016;SDS011;63577;39.766;2.720;2023-06-14T09:17:34;5.20;;;2.40;;
75016;SDS011;63577;39.766;2.720;2023-06-14T09:20:00;5.00;;;2.20;;
75016;SDS011;63577;39.766;2.720;2023-06-14T09:22:29;4.80;;;2.00;;
75016;SDS011;63577;39.766;2.720;2023-06-14T09:24:54;5.50;;;2.10;;
75016;SDS011;63577;39.766;2.720;2023-06-14T09:27:20;6.60;;;2.00;;
75016;SDS011;63577;39.766;2.720;2023-06-14T09:29:45;4.10;;;1.80;;
75016;SDS011;63577;39.766;2.720;2023-06-14T09:32:10;5.20;;;2.10;;
75016;SDS011;63577;39.766;2.720;2023-06-14T09:34:36;4.00;;;2.00;;
75016;SDS011;63577;39.766;2.720;2023-06-14T09:37:02;6.20;;;2.20;;
75016;SDS011;63577;39.766;2.720;2023-06-14T09:39:27;4.60;;;2.10;;
75016;SDS011;63577;39.766;2.720;2023-06-14T09:41:53;6.90;;;4.10;;
75016;SDS011;63577;39.766;2.720;2023-06-14T09:44:18;5.70;;;3.10;;
75016;SDS011;63577;39.766;2.720;2023-06-14T09:46:45;5.60;;;2.70;;
75016;SDS011;63577;39.766;2.720;2023-06-14T09:49:11;4.90;;;2.60;;
75016;SDS011;63577;39.766;2.720;2023-06-14T09:51:42;6.20;;;3.80;;
75016;SDS011;63577;39.766;2.720;2023-06-14T09:54:09;8.00;;;4.00;;
75016;SDS011;63577;39.766;2.720;2023-06-14T09:56:39;6.50;;;3.60;;
75016;SDS011;63577;39.766;2.720;2023-06-14T09:59:06;8.50;;;3.90;;
75016;SDS011;63577;39.766;2.720;2023-06-14T10:01:35;7.50;;;3.50;;
75016;SDS011;63577;39.766;2.720;2023-06-14T10:04:04;6.00;;;2.20;;
75016;SDS011;63577;39.766;2.720;2023-06-14T10:06:30;7.80;;;2.40;;
75016;SDS011;63577;39.766;2.720;2023-06-14T10:08:56;7.00;;;2.80;;
75016;SDS011;63577;39.766;2.720;2023-06-14T10:11:22;7.80;;;2.60;;
75016;SDS011;63577;39.766;2.720;2023-06-14T10:13:48;7.30;;;2.20;;
75016;SDS011;63577;39.766;2.720;2023-06-14T10:16:17;5.20;;;1.80;;
75016;SDS011;63577;39.766;2.720;2023-06-14T10:23:53;6.70;;;1.70;;
75016;SDS011;63577;39.766;2.720;2023-06-14T10:26:19;7.30;;;2.30;;
75016;SDS011;63577;39.766;2.720;2023-06-14T10:29:08;7.00;;;2.20;;
75016;SDS011;63577;39.766;2.720;2023-06-14T10:31:45;8.10;;;2.30;;
75016;SDS011;63577;39.766;2.720;2023-06-14T10:34:11;4.00;;;1.70;;
75016;SDS011;63577;39.766;2.720;2023-06-14T10:36:37;5.20;;;1.90;;
75016;SDS011;63577;39.766;2.720;2023-06-14T10:39:05;4.50;;;2.00;;
75016;SDS011;63577;39.766;2.720;2023-06-14T10:41:34;4.90;;;2.00;;
75016;SDS011;63577;39.766;2.720;2023-06-14T10:46:37;5.10;;;1.90;;
75016;SDS011;63577;39.766;2.720;2023-06-14T10:49:02;6.00;;;1.90;;
75016;SDS011;63577;39.766;2.720;2023-06-14T10:51:29;5.90;;;2.20;;
75016;SDS011;63577;39.766;2.720;2023-06-14T10:53:56;5.50;;;2.10;;
75016;SDS011;63577;39.766;2.720;2023-06-14T10:56:30;7.70;;;2.70;;
75016;SDS011;63577;39.766;2.720;2023-06-14T10:58:57;6.00;;;2.10;;
75016;SDS011;63577;39.766;2.720;2023-06-14T11:01:35;4.90;;;1.70;;
75016;SDS011;63577;39.766;2.720;2023-06-14T11:04:07;6.30;;;1.50;;
75016;SDS011;63577;39.766;2.720;2023-06-14T11:06:44;5.40;;;1.70;;
75016;SDS011;63577;39.766;2.720;2023-06-14T11:11:57;5.10;;;1.60;;
75016;SDS011;63577;39.766;2.720;2023-06-14T11:14:23;4.10;;;1.40;;
75016;SDS011;63577;39.766;2.720;2023-06-14T11:16:49;4.10;;;1.70;;
75016;SDS011;63577;39.766;2.720;2023-06-14T11:19:15;4.60;;;1.50;;
75016;SDS011;63577;39.766;2.720;2023-06-14T11:21:42;4.60;;;1.70;;
75016;SDS011;63577;39.766;2.720;2023-06-14T11:24:10;3.50;;;1.30;;
75016;SDS011;63577;39.766;2.720;2023-06-14T11:26:37;3.90;;;1.20;;
75016;SDS011;63577;39.766;2.720;2023-06-14T11:29:03;3.20;;;1.60;;
75016;SDS011;63577;39.766;2.720;2023-06-14T11:31:28;4.10;;;1.80;;
75016;SDS011;63577;39.766;2.720;2023-06-14T11:33:54;3.30;;;1.50;;
75016;SDS011;63577;39.766;2.720;2023-06-14T11:36:20;3.40;;;1.30;;
75016;SDS011;63577;39.766;2.720;2023-06-14T11:38:46;10.70;;;2.00;;
75016;SDS011;63577;39.766;2.720;2023-06-14T11:41:11;5.10;;;1.60;;
75016;SDS011;63577;39.766;2.720;2023-06-14T11:43:36;3.60;;;1.40;;
75016;SDS011;63577;39.766;2.720;2023-06-14T11:46:02;4.30;;;1.40;;
75016;SDS011;63577;39.766;2.720;2023-06-14T11:48:40;5.50;;;2.00;;
75016;SDS011;63577;39.766;2.720;2023-06-14T11:51:05;3.80;;;1.70;;
75016;SDS011;63577;39.766;2.720;2023-06-14T11:53:31;3.50;;;1.80;;
75016;SDS011;63577;39.766;2.720;2023-06-14T11:55:57;4.40;;;2.00;;
75016;SDS011;63577;39.766;2.720;2023-06-14T11:58:22;5.20;;;2.90;;
75016;SDS011;63577;39.766;2.720;2023-06-14T12:00:51;3.70;;;2.00;;
75016;SDS011;63577;39.766;2.720;2023-06-14T12:03:17;5.40;;;2.20;;
75016;SDS011;63577;39.766;2.720;2023-06-14T12:05:42;4.40;;;2.40;;
75016;SDS011;63577;39.766;2.720;2023-06-14T12:08:08;4.00;;;1.70;;
75016;SDS011;63577;39.766;2.720;2023-06-14T12:10:41;3.80;;;1.90;;
75016;SDS011;63577;39.766;2.720;2023-06-14T12:13:10;4.90;;;1.80;;
75016;SDS011;63577;39.766;2.720;2023-06-14T12:15:36;7.10;;;4.30;;
75016;SDS011;63577;39.766;2.720;2023-06-14T12:18:01;5.70;;;3.50;;
75016;SDS011;63577;39.766;2.720;2023-06-14T12:20:31;4.70;;;2.60;;
75016;SDS011;63577;39.766;2.720;2023-06-14T12:22:58;4.40;;;1.90;;
75016;SDS011;63577;39.766;2.720;2023-06-14T12:27:52;4.00;;;1.80;;
75016;SDS011;63577;39.766;2.720;2023-06-14T12:30:18;5.30;;;1.50;;
75016;SDS011;63577;39.766;2.720;2023-06-14T12:32:43;4.10;;;1.80;;
75016;SDS011;63577;39.766;2.720;2023-06-14T12:35:10;3.50;;;1.60;;
75016;SDS011;63577;39.766;2.720;2023-06-14T12:37:35;5.20;;;1.90;;
75016;SDS011;63577;39.766;2.720;2023-06-14T12:40:01;3.80;;;1.90;;
75016;SDS011;63577;39.766;2.720;2023-06-14T12:42:31;4.10;;;1.80;;
75016;SDS011;63577;39.766;2.720;2023-06-14T12:44:56;3.50;;;1.60;;
75016;SDS011;63577;39.766;2.720;2023-06-14T12:47:22;4.70;;;2.00;;
75016;SDS011;63577;39.766;2.720;2023-06-14T12:49:47;3.40;;;1.80;;
75016;SDS011;63577;39.766;2.720;2023-06-14T12:52:12;4.40;;;2.00;;
75016;SDS011;63577;39.766;2.720;2023-06-14T12:54:38;5.00;;;1.90;;
75016;SDS011;63577;39.766;2.720;2023-06-14T12:57:05;3.40;;;1.90;;
75016;SDS011;63577;39.766;2.720;2023-06-14T12:59:30;4.90;;;2.20;;
75016;SDS011;63577;39.766;2.720;2023-06-14T13:01:59;3.70;;;1.80;;
75016;SDS011;63577;39.766;2.720;2023-06-14T13:04:25;4.10;;;2.10;;
75016;SDS011;63577;39.766;2.720;2023-06-14T13:06:50;4.30;;;1.90;;
75016;SDS011;63577;39.766;2.720;2023-06-14T13:09:15;5.10;;;2.00;;
75016;SDS011;63577;39.766;2.720;2023-06-14T13:11:41;5.60;;;1.80;;
75016;SDS011;63577;39.766;2.720;2023-06-14T13:14:10;4.40;;;1.90;;
75016;SDS011;63577;39.766;2.720;2023-06-14T13:16:36;4.90;;;2.00;;
75016;SDS011;63577;39.766;2.720;2023-06-14T13:19:01;4.70;;;2.20;;
75016;SDS011;63577;39.766;2.720;2023-06-14T13:21:27;4.50;;;2.10;;
75016;SDS011;63577;39.766;2.720;2023-06-14T13:23:52;4.20;;;2.20;;
75016;SDS011;63577;39.766;2.720;2023-06-14T13:26:19;5.70;;;2.20;;
75016;SDS011;63577;39.766;2.720;2023-06-14T13:28:44;4.90;;;2.10;;
75016;SDS011;63577;39.766;2.720;2023-06-14T13:31:09;6.30;;;2.20;;
75016;SDS011;63577;39.766;2.720;2023-06-14T13:33:35;4.30;;;2.10;;
75016;SDS011;63577;39.766;2.720;2023-06-14T13:36:00;5.40;;;1.90;;
75016;SDS011;63577;39.766;2.720;2023-06-14T13:38:26;4.30;;;2.00;;
75016;SDS011;63577;39.766;2.720;2023-06-14T13:40:51;4.60;;;2.20;;
75016;SDS011;63577;39.766;2.720;2023-06-14T13:43:16;4.30;;;1.80;;
75016;SDS011;63577;39.766;2.720;2023-06-14T13:45:41;4.40;;;2.30;;
75016;SDS011;63577;39.766;2.720;2023-06-14T13:48:07;4.70;;;1.80;;
75016;SDS011;63577;39.766;2.720;2023-06-14T13:50:32;4.20;;;2.20;;
75016;SDS011;63577;39.766;2.720;2023-06-14T13:52:58;4.40;;;1.80;;
75016;SDS011;63577;39.766;2.720;2023-06-14T13:55:24;4.20;;;2.00;;
75016;SDS011;63577;39.766;2.720;2023-06-14T13:57:49;4.80;;;2.00;;
75016;SDS011;63577;39.766;2.720;2023-06-14T14:00:15;3.60;;;2.10;;
75016;SDS011;63577;39.766;2.720;2023-06-14T14:02:40;4.60;;;1.70;;
75016;SDS011;63577;39.766;2.720;2023-06-14T14:05:06;3.70;;;1.90;;
75016;SDS011;63577;39.766;2.720;2023-06-14T14:07:31;4.10;;;2.10;;
75016;SDS011;63577;39.766;2.720;2023-06-14T14:09:57;4.90;;;2.20;;
75016;SDS011;63577;39.766;2.720;2023-06-14T14:12:22;5.20;;;2.00;;
75016;SDS011;63577;39.766;2.720;2023-06-14T14:14:48;3.90;;;2.20;;
75016;SDS011;63577;39.766;2.720;2023-06-14T14:17:13;6.30;;;2.10;;
75016;SDS011;63577;39.766;2.720;2023-06-14T14:19:39;5.80;;;2.10;;
75016;SDS011;63577;39.766;2.720;2023-06-14T14:22:04;4.40;;;2.00;;
75016;SDS011;63577;39.766;2.720;2023-06-14T14:24:30;4.10;;;1.70;;
75016;SDS011;63577;39.766;2.720;2023-06-14T14:26:55;4.50;;;1.70;;
75016;SDS011;63577;39.766;2.720;2023-06-14T14:29:25;3.90;;;1.70;;
75016;SDS011;63577;39.766;2.720;2023-06-14T14:31:54;4.90;;;1.70;;
75016;SDS011;63577;39.766;2.720;2023-06-14T14:34:19;4.20;;;1.80;;
75016;SDS011;63577;39.766;2.720;2023-06-14T14:36:45;3.40;;;1.60;;
75016;SDS011;63577;39.766;2.720;2023-06-14T14:39:10;5.50;;;2.10;;
75016;SDS011;63577;39.766;2.720;2023-06-14T14:41:35;3.30;;;1.70;;
75016;SDS011;63577;39.766;2.720;2023-06-14T14:44:02;4.80;;;1.80;;
75016;SDS011;63577;39.766;2.720;2023-06-14T14:46:28;3.90;;;1.70;;
75016;SDS011;63577;39.766;2.720;2023-06-14T14:48:53;4.00;;;1.90;;
75016;SDS011;63577;39.766;2.720;2023-06-14T14:51:19;5.10;;;2.10;;
75016;SDS011;63577;39.766;2.720;2023-06-14T14:53:44;4.90;;;2.00;;
75016;SDS011;63577;39.766;2.720;2023-06-14T14:56:10;4.10;;;1.90;;
75016;SDS011;63577;39.766;2.720;2023-06-14T14:58:37;4.70;;;2.30;;
75016;SDS011;63577;39.766;2.720;2023-06-14T15:01:02;3.90;;;1.80;;